sensor_id;sensor_type;location;lat;lon;timestamp;P1;durP1;ratioP1;P2;durP2;ratioP2
6255;SDS011;3161;48.794;9.784;2023-03-01T00:01:16;26.20;;;14.87;;
6255;SDS011;3161;48.794;9.784;2023-03-01T00:03:48;21.90;;;11.87;;
6255;SDS011;3161;48.794;9.784;2023-03-01T00:06:16;24.10;;;12.00;;
6255;SDS011;3161;48.794;9.784;2023-03-01T00:08:44;20.70;;;12.17;;
6255;SDS011;3161;48.794;9.784;2023-03-01T00:11:13;16.77;;;11.10;;
6255;SDS011;3161;48.794;9.784;2023-03-01T00:13:43;18.53;;;11.77;;
6255;SDS011;3161;48.794;9.784;2023-03-01T00:16:12;21.80;;;12.20;;
6255;SDS011;3161;48.794;9.784;2023-03-01T00:18:42;21.37;;;11.90;;
6255;SDS011;3161;48.794;9.784;2023-03-01T00:21:10;18.83;;;11.40;;
6255;SDS011;3161;48.794;9.784;2023-03-01T00:23:57;23.00;;;12.30;;
6255;SDS011;3161;48.794;9.784;2023-03-01T00:26:22;16.90;;;10.63;;
6255;SDS011;3161;48.794;9.784;2023-03-01T00:28:51;20.80;;;12.40;;
6255;SDS011;3161;48.794;9.784;2023-03-01T00:31:22;21.97;;;11.53;;
6255;SDS011;3161;48.794;9.784;2023-03-01T00:33:54;22.50;;;12.47;;
6255;SDS011;3161;48.794;9.784;2023-03-01T00:36:25;20.53;;;12.33;;
6255;SDS011;3161;48.794;9.784;2023-03-01T00:38:57;19.97;;;11.90;;
6255;SDS011;3161;48.794;9.784;2023-03-01T00:41:25;22.33;;;12.70;;
6255;SDS011;3161;48.794;9.784;2023-03-01T00:43:53;22.07;;;11.60;;
6255;SDS011;3161;48.794;9.784;2023-03-01T00:46:22;17.80;;;10.80;;
6255;SDS011;3161;48.794;9.784;2023-03-01T00:48:52;17.97;;;10.83;;
6255;SDS011;3161;48.794;9.784;2023-03-01T00:51:29;20.63;;;11.40;;
6255;SDS011;3161;48.794;9.784;2023-03-01T00:53:55;19.93;;;11.70;;
6255;SDS011;3161;48.794;9.784;2023-03-01T00:56:23;16.53;;;10.20;;
6255;SDS011;3161;48.794;9.784;2023-03-01T00:58:51;19.67;;;11.50;;
6255;SDS011;3161;48.794;9.784;2023-03-01T01:01:20;19.73;;;11.37;;
6255;SDS011;3161;48.794;9.784;2023-03-01T01:03:52;15.47;;;10.80;;
6255;SDS011;3161;48.794;9.784;2023-03-01T01:06:31;18.30;;;11.13;;
6255;SDS011;3161;48.794;9.784;2023-03-01T01:09:04;18.47;;;10.83;;
6255;SDS011;3161;48.794;9.784;2023-03-01T01:11:33;18.27;;;11.10;;
6255;SDS011;3161;48.794;9.784;2023-03-01T01:14:02;20.57;;;10.87;;
6255;SDS011;3161;48.794;9.784;2023-03-01T01:16:30;21.07;;;11.60;;
6255;SDS011;3161;48.794;9.784;2023-03-01T01:18:57;17.10;;;10.20;;
6255;SDS011;3161;48.794;9.784;2023-03-01T01:21:25;18.70;;;10.60;;
6255;SDS011;3161;48.794;9.784;2023-03-01T01:23:53;16.63;;;11.73;;
6255;SDS011;3161;48.794;9.784;2023-03-01T01:26:22;19.13;;;11.37;;
6255;SDS011;3161;48.794;9.784;2023-03-01T01:28:57;19.87;;;12.60;;
6255;SDS011;3161;48.794;9.784;2023-03-01T01:31:26;21.40;;;12.30;;
6255;SDS011;3161;48.794;9.784;2023-03-01T01:33:54;21.73;;;11.83;;
6255;SDS011;3161;48.794;9.784;2023-03-01T01:36:23;23.13;;;11.10;;
6255;SDS011;3161;48.794;9.784;2023-03-01T01:38:50;17.57;;;11.80;;
6255;SDS011;3161;48.794;9.784;2023-03-01T01:41:19;17.77;;;10.53;;
6255;SDS011;3161;48.794;9.784;2023-03-01T01:43:49;22.40;;;12.43;;
6255;SDS011;3161;48.794;9.784;2023-03-01T01:46:25;19.03;;;11.50;;
6255;SDS011;3161;48.794;9.784;2023-03-01T01:49:05;17.53;;;11.77;;
6255;SDS011;3161;48.794;9.784;2023-03-01T01:51:35;19.83;;;11.03;;
6255;SDS011;3161;48.794;9.784;2023-03-01T01:54:07;17.73;;;11.23;;
6255;SDS011;3161;48.794;9.784;2023-03-01T01:56:36;18.60;;;11.87;;
6255;SDS011;3161;48.794;9.784;2023-03-01T01:59:06;20.20;;;10.60;;
6255;SDS011;3161;48.794;9.784;2023-03-01T02:01:34;20.03;;;11.10;;
6255;SDS011;3161;48.794;9.784;2023-03-01T02:04:02;20.20;;;11.83;;
6255;SDS011;3161;48.794;9.784;2023-03-01T02:06:37;16.53;;;11.20;;
6255;SDS011;3161;48.794;9.784;2023-03-01T02:09:11;28.43;;;13.20;;
6255;SDS011;3161;48.794;9.784;2023-03-01T02:11:39;18.03;;;10.97;;
6255;SDS011;3161;48.794;9.784;2023-03-01T02:14:07;17.83;;;11.40;;
6255;SDS011;3161;48.794;9.784;2023-03-01T02:16:35;19.37;;;11.33;;
6255;SDS011;3161;48.794;9.784;2023-03-01T02:19:03;24.93;;;12.33;;
6255;SDS011;3161;48.794;9.784;2023-03-01T02:27:13;21.80;;;12.07;;
6255;SDS011;3161;48.794;9.784;2023-03-01T02:29:42;20.80;;;12.97;;
6255;SDS011;3161;48.794;9.784;2023-03-01T02:32:09;17.17;;;12.20;;
6255;SDS011;3161;48.794;9.784;2023-03-01T02:34:38;19.37;;;12.20;;
6255;SDS011;3161;48.794;9.784;2023-03-01T02:37:11;21.00;;;11.93;;
6255;SDS011;3161;48.794;9.784;2023-03-01T02:39:42;18.23;;;11.07;;
6255;SDS011;3161;48.794;9.784;2023-03-01T02:42:12;23.57;;;12.30;;
6255;SDS011;3161;48.794;9.784;2023-03-01T02:44:42;22.17;;;10.97;;
6255;SDS011;3161;48.794;9.784;2023-03-01T02:47:10;20.40;;;11.60;;
6255;SDS011;3161;48.794;9.784;2023-03-01T02:49:38;18.67;;;11.27;;
6255;SDS011;3161;48.794;9.784;2023-03-01T02:52:13;17.93;;;11.60;;
6255;SDS011;3161;48.794;9.784;2023-03-01T02:54:58;17.90;;;11.40;;
6255;SDS011;3161;48.794;9.784;2023-03-01T02:57:28;21.07;;;11.70;;
6255;SDS011;3161;48.794;9.784;2023-03-01T02:59:59;16.07;;;10.77;;
6255;SDS011;3161;48.794;9.784;2023-03-01T03:02:30;21.37;;;11.87;;
6255;SDS011;3161;48.794;9.784;2023-03-01T03:05:04;18.00;;;11.70;;
6255;SDS011;3161;48.794;9.784;2023-03-01T03:07:38;16.93;;;10.57;;
6255;SDS011;3161;48.794;9.784;2023-03-01T03:10:09;19.67;;;11.50;;
6255;SDS011;3161;48.794;9.784;2023-03-01T03:12:38;19.83;;;12.27;;
6255;SDS011;3161;48.794;9.784;2023-03-01T03:15:07;20.07;;;11.57;;
6255;SDS011;3161;48.794;9.784;2023-03-01T03:17:36;17.50;;;10.70;;
6255;SDS011;3161;48.794;9.784;2023-03-01T03:20:05;20.87;;;11.80;;
6255;SDS011;3161;48.794;9.784;2023-03-01T03:22:35;20.23;;;11.70;;
6255;SDS011;3161;48.794;9.784;2023-03-01T03:25:04;19.67;;;11.77;;
6255;SDS011;3161;48.794;9.784;2023-03-01T03:27:34;20.47;;;11.40;;
6255;SDS011;3161;48.794;9.784;2023-03-01T03:30:02;18.93;;;12.47;;
6255;SDS011;3161;48.794;9.784;2023-03-01T03:32:32;21.83;;;11.60;;
6255;SDS011;3161;48.794;9.784;2023-03-01T03:35:00;24.20;;;11.57;;
6255;SDS011;3161;48.794;9.784;2023-03-01T03:37:28;21.40;;;10.87;;
6255;SDS011;3161;48.794;9.784;2023-03-01T03:40:14;22.17;;;11.77;;
6255;SDS011;3161;48.794;9.784;2023-03-01T03:42:42;18.73;;;11.50;;
6255;SDS011;3161;48.794;9.784;2023-03-01T03:45:09;24.90;;;12.03;;
6255;SDS011;3161;48.794;9.784;2023-03-01T03:47:37;20.30;;;11.40;;
6255;SDS011;3161;48.794;9.784;2023-03-01T03:50:04;23.87;;;11.10;;
6255;SDS011;3161;48.794;9.784;2023-03-01T03:52:32;19.17;;;11.57;;
6255;SDS011;3161;48.794;9.784;2023-03-01T03:55:00;19.53;;;12.27;;
6255;SDS011;3161;48.794;9.784;2023-03-01T03:57:27;15.93;;;11.03;;
6255;SDS011;3161;48.794;9.784;2023-03-01T03:59:55;19.33;;;11.57;;
6255;SDS011;3161;48.794;9.784;2023-03-01T04:02:22;21.20;;;11.83;;
6255;SDS011;3161;48.794;9.784;2023-03-01T04:04:50;18.93;;;11.87;;
6255;SDS011;3161;48.794;9.784;2023-03-01T04:07:18;20.17;;;12.10;;
6255;SDS011;3161;48.794;9.784;2023-03-01T04:09:49;21.03;;;12.17;;
6255;SDS011;3161;48.794;9.784;2023-03-01T04:12:16;18.40;;;11.30;;
6255;SDS011;3161;48.794;9.784;2023-03-01T04:14:46;19.30;;;11.53;;
6255;SDS011;3161;48.794;9.784;2023-03-01T04:17:13;20.60;;;13.07;;
6255;SDS011;3161;48.794;9.784;2023-03-01T04:19:41;18.60;;;11.77;;
6255;SDS011;3161;48.794;9.784;2023-03-01T04:22:09;21.87;;;12.33;;
6255;SDS011;3161;48.794;9.784;2023-03-01T04:24:38;20.03;;;10.90;;
6255;SDS011;3161;48.794;9.784;2023-03-01T04:27:06;18.90;;;11.77;;
6255;SDS011;3161;48.794;9.784;2023-03-01T04:29:33;20.83;;;12.80;;
6255;SDS011;3161;48.794;9.784;2023-03-01T04:32:01;17.53;;;11.53;;
6255;SDS011;3161;48.794;9.784;2023-03-01T04:34:29;19.17;;;11.30;;
6255;SDS011;3161;48.794;9.784;2023-03-01T04:36:57;17.53;;;11.60;;
6255;SDS011;3161;48.794;9.784;2023-03-01T04:39:24;19.53;;;12.33;;
6255;SDS011;3161;48.794;9.784;2023-03-01T04:41:52;18.57;;;11.67;;
6255;SDS011;3161;48.794;9.784;2023-03-01T04:44:19;21.33;;;12.23;;
6255;SDS011;3161;48.794;9.784;2023-03-01T04:46:48;22.60;;;12.63;;
6255;SDS011;3161;48.794;9.784;2023-03-01T04:49:16;23.03;;;13.47;;
6255;SDS011;3161;48.794;9.784;2023-03-01T04:51:43;19.10;;;11.67;;
6255;SDS011;3161;48.794;9.784;2023-03-01T04:54:11;23.93;;;13.83;;
6255;SDS011;3161;48.794;9.784;2023-03-01T04:56:38;19.47;;;12.20;;
6255;SDS011;3161;48.794;9.784;2023-03-01T04:59:06;25.00;;;11.20;;
6255;SDS011;3161;48.794;9.784;2023-03-01T05:01:35;19.63;;;11.67;;
6255;SDS011;3161;48.794;9.784;2023-03-01T05:04:03;24.50;;;12.73;;
6255;SDS011;3161;48.794;9.784;2023-03-01T05:06:31;26.43;;;13.37;;
6255;SDS011;3161;48.794;9.784;2023-03-01T05:08:59;24.33;;;13.13;;
6255;SDS011;3161;48.794;9.784;2023-03-01T05:11:26;22.90;;;12.63;;
6255;SDS011;3161;48.794;9.784;2023-03-01T05:13:55;20.87;;;12.43;;
6255;SDS011;3161;48.794;9.784;2023-03-01T05:16:23;23.63;;;12.67;;
6255;SDS011;3161;48.794;9.784;2023-03-01T05:18:50;20.37;;;12.67;;
6255;SDS011;3161;48.794;9.784;2023-03-01T05:21:18;21.10;;;12.93;;
6255;SDS011;3161;48.794;9.784;2023-03-01T05:23:45;20.27;;;12.10;;
6255;SDS011;3161;48.794;9.784;2023-03-01T05:26:14;21.87;;;13.50;;
6255;SDS011;3161;48.794;9.784;2023-03-01T05:28:43;25.40;;;12.83;;
6255;SDS011;3161;48.794;9.784;2023-03-01T05:31:11;25.17;;;13.77;;
6255;SDS011;3161;48.794;9.784;2023-03-01T05:33:39;24.17;;;13.10;;
6255;SDS011;3161;48.794;9.784;2023-03-01T05:36:08;21.40;;;12.47;;
6255;SDS011;3161;48.794;9.784;2023-03-01T05:38:36;20.97;;;12.33;;
6255;SDS011;3161;48.794;9.784;2023-03-01T05:41:04;21.97;;;13.20;;
6255;SDS011;3161;48.794;9.784;2023-03-01T05:43:31;21.37;;;11.27;;
6255;SDS011;3161;48.794;9.784;2023-03-01T05:45:59;19.80;;;12.70;;
6255;SDS011;3161;48.794;9.784;2023-03-01T05:48:27;19.97;;;12.10;;
6255;SDS011;3161;48.794;9.784;2023-03-01T05:50:54;19.53;;;12.03;;
6255;SDS011;3161;48.794;9.784;2023-03-01T05:53:23;26.73;;;13.37;;
6255;SDS011;3161;48.794;9.784;2023-03-01T05:55:52;21.03;;;12.13;;
6255;SDS011;3161;48.794;9.784;2023-03-01T05:58:19;21.77;;;13.50;;
6255;SDS011;3161;48.794;9.784;2023-03-01T06:00:48;26.27;;;13.33;;
6255;SDS011;3161;48.794;9.784;2023-03-01T06:03:16;26.33;;;13.63;;
6255;SDS011;3161;48.794;9.784;2023-03-01T06:05:44;21.33;;;12.20;;
6255;SDS011;3161;48.794;9.784;2023-03-01T06:08:12;21.97;;;12.67;;
6255;SDS011;3161;48.794;9.784;2023-03-01T06:10:40;24.40;;;13.93;;
6255;SDS011;3161;48.794;9.784;2023-03-01T06:13:08;23.60;;;13.00;;
6255;SDS011;3161;48.794;9.784;2023-03-01T06:15:35;26.40;;;13.73;;
6255;SDS011;3161;48.794;9.784;2023-03-01T06:18:03;20.67;;;12.83;;
6255;SDS011;3161;48.794;9.784;2023-03-01T06:20:30;22.73;;;12.87;;
6255;SDS011;3161;48.794;9.784;2023-03-01T06:22:58;27.33;;;15.27;;
6255;SDS011;3161;48.794;9.784;2023-03-01T06:25:26;22.93;;;12.30;;
6255;SDS011;3161;48.794;9.784;2023-03-01T06:27:54;28.90;;;14.60;;
6255;SDS011;3161;48.794;9.784;2023-03-01T06:30:22;26.97;;;13.27;;
6255;SDS011;3161;48.794;9.784;2023-03-01T06:32:50;24.73;;;13.13;;
6255;SDS011;3161;48.794;9.784;2023-03-01T06:35:20;23.40;;;13.03;;
6255;SDS011;3161;48.794;9.784;2023-03-01T06:37:48;27.33;;;14.73;;
6255;SDS011;3161;48.794;9.784;2023-03-01T06:40:15;24.70;;;14.40;;
6255;SDS011;3161;48.794;9.784;2023-03-01T06:42:47;25.93;;;14.97;;
6255;SDS011;3161;48.794;9.784;2023-03-01T06:45:14;25.37;;;14.20;;
6255;SDS011;3161;48.794;9.784;2023-03-01T06:47:43;28.43;;;14.90;;
6255;SDS011;3161;48.794;9.784;2023-03-01T06:50:11;24.33;;;13.27;;
6255;SDS011;3161;48.794;9.784;2023-03-01T06:52:39;22.30;;;12.73;;
6255;SDS011;3161;48.794;9.784;2023-03-01T06:55:07;22.67;;;13.77;;
6255;SDS011;3161;48.794;9.784;2023-03-01T06:57:35;26.77;;;13.83;;
6255;SDS011;3161;48.794;9.784;2023-03-01T07:00:07;26.17;;;14.10;;
6255;SDS011;3161;48.794;9.784;2023-03-01T07:02:32;25.43;;;13.70;;
6255;SDS011;3161;48.794;9.784;2023-03-01T07:05:00;21.10;;;12.50;;
6255;SDS011;3161;48.794;9.784;2023-03-01T07:07:27;27.73;;;13.87;;
6255;SDS011;3161;48.794;9.784;2023-03-01T07:09:55;28.77;;;14.17;;
6255;SDS011;3161;48.794;9.784;2023-03-01T07:12:23;25.50;;;13.07;;
6255;SDS011;3161;48.794;9.784;2023-03-01T07:14:50;26.47;;;13.53;;
6255;SDS011;3161;48.794;9.784;2023-03-01T07:17:18;28.17;;;12.77;;
6255;SDS011;3161;48.794;9.784;2023-03-01T07:19:46;20.23;;;12.60;;
6255;SDS011;3161;48.794;9.784;2023-03-01T07:22:34;21.90;;;13.13;;
6255;SDS011;3161;48.794;9.784;2023-03-01T07:25:02;22.87;;;13.77;;
6255;SDS011;3161;48.794;9.784;2023-03-01T07:27:30;30.03;;;14.10;;
6255;SDS011;3161;48.794;9.784;2023-03-01T07:29:58;21.87;;;12.37;;
6255;SDS011;3161;48.794;9.784;2023-03-01T07:32:25;22.13;;;13.67;;
6255;SDS011;3161;48.794;9.784;2023-03-01T07:34:53;42.63;;;14.77;;
6255;SDS011;3161;48.794;9.784;2023-03-01T07:37:20;24.00;;;13.70;;
6255;SDS011;3161;48.794;9.784;2023-03-01T07:39:48;28.03;;;14.23;;
6255;SDS011;3161;48.794;9.784;2023-03-01T07:42:15;27.07;;;14.07;;
6255;SDS011;3161;48.794;9.784;2023-03-01T07:44:43;23.43;;;13.30;;
6255;SDS011;3161;48.794;9.784;2023-03-01T07:47:10;25.13;;;13.60;;
6255;SDS011;3161;48.794;9.784;2023-03-01T07:49:38;28.83;;;13.97;;
6255;SDS011;3161;48.794;9.784;2023-03-01T07:52:05;22.93;;;14.33;;
6255;SDS011;3161;48.794;9.784;2023-03-01T07:54:33;21.83;;;11.77;;
6255;SDS011;3161;48.794;9.784;2023-03-01T07:57:00;22.57;;;13.40;;
6255;SDS011;3161;48.794;9.784;2023-03-01T07:59:29;26.73;;;13.73;;
6255;SDS011;3161;48.794;9.784;2023-03-01T08:01:57;26.13;;;13.33;;
6255;SDS011;3161;48.794;9.784;2023-03-01T08:04:24;21.63;;;12.27;;
6255;SDS011;3161;48.794;9.784;2023-03-01T08:06:54;18.43;;;12.10;;
6255;SDS011;3161;48.794;9.784;2023-03-01T08:09:21;24.97;;;13.00;;
6255;SDS011;3161;48.794;9.784;2023-03-01T08:11:49;19.90;;;11.70;;
6255;SDS011;3161;48.794;9.784;2023-03-01T08:14:17;22.90;;;12.27;;
6255;SDS011;3161;48.794;9.784;2023-03-01T08:16:45;17.53;;;12.03;;
6255;SDS011;3161;48.794;9.784;2023-03-01T08:19:14;18.87;;;12.13;;
6255;SDS011;3161;48.794;9.784;2023-03-01T08:21:41;23.13;;;12.30;;
6255;SDS011;3161;48.794;9.784;2023-03-01T08:24:09;21.53;;;12.60;;
6255;SDS011;3161;48.794;9.784;2023-03-01T08:32:21;19.67;;;12.27;;
6255;SDS011;3161;48.794;9.784;2023-03-01T08:34:49;18.67;;;11.60;;
6255;SDS011;3161;48.794;9.784;2023-03-01T08:37:16;21.87;;;11.00;;
6255;SDS011;3161;48.794;9.784;2023-03-01T08:39:44;18.53;;;11.97;;
6255;SDS011;3161;48.794;9.784;2023-03-01T08:42:11;22.07;;;12.33;;
6255;SDS011;3161;48.794;9.784;2023-03-01T08:44:39;20.70;;;12.23;;
6255;SDS011;3161;48.794;9.784;2023-03-01T08:47:06;22.93;;;11.70;;
6255;SDS011;3161;48.794;9.784;2023-03-01T08:49:34;20.80;;;11.53;;
6255;SDS011;3161;48.794;9.784;2023-03-01T08:52:01;21.50;;;11.80;;
6255;SDS011;3161;48.794;9.784;2023-03-01T08:54:29;16.13;;;10.40;;
6255;SDS011;3161;48.794;9.784;2023-03-01T08:56:57;18.20;;;11.13;;
6255;SDS011;3161;48.794;9.784;2023-03-01T08:59:25;17.33;;;11.70;;
6255;SDS011;3161;48.794;9.784;2023-03-01T09:02:14;18.37;;;11.80;;
6255;SDS011;3161;48.794;9.784;2023-03-01T09:04:43;20.03;;;11.93;;
6255;SDS011;3161;48.794;9.784;2023-03-01T09:07:11;19.50;;;11.77;;
6255;SDS011;3161;48.794;9.784;2023-03-01T09:09:39;18.20;;;11.40;;
6255;SDS011;3161;48.794;9.784;2023-03-01T09:12:06;16.93;;;11.50;;
6255;SDS011;3161;48.794;9.784;2023-03-01T09:14:34;17.93;;;11.10;;
6255;SDS011;3161;48.794;9.784;2023-03-01T09:17:03;17.83;;;11.53;;
6255;SDS011;3161;48.794;9.784;2023-03-01T09:19:30;18.50;;;12.20;;
6255;SDS011;3161;48.794;9.784;2023-03-01T09:21:58;18.03;;;12.47;;
6255;SDS011;3161;48.794;9.784;2023-03-01T09:24:25;18.00;;;12.00;;
6255;SDS011;3161;48.794;9.784;2023-03-01T09:26:54;16.43;;;11.70;;
6255;SDS011;3161;48.794;9.784;2023-03-01T09:29:22;16.63;;;11.37;;
6255;SDS011;3161;48.794;9.784;2023-03-01T09:31:51;16.30;;;11.07;;
6255;SDS011;3161;48.794;9.784;2023-03-01T09:34:21;17.30;;;11.07;;
6255;SDS011;3161;48.794;9.784;2023-03-01T09:36:50;18.03;;;11.70;;
6255;SDS011;3161;48.794;9.784;2023-03-01T09:39:17;17.33;;;11.50;;
6255;SDS011;3161;48.794;9.784;2023-03-01T09:42:10;16.23;;;10.73;;
6255;SDS011;3161;48.794;9.784;2023-03-01T09:44:40;16.87;;;11.13;;
6255;SDS011;3161;48.794;9.784;2023-03-01T09:47:17;16.63;;;11.13;;
6255;SDS011;3161;48.794;9.784;2023-03-01T09:50:21;16.87;;;11.33;;
6255;SDS011;3161;48.794;9.784;2023-03-01T09:55:15;16.97;;;10.40;;
6255;SDS011;3161;48.794;9.784;2023-03-01T09:57:59;15.03;;;10.33;;
6255;SDS011;3161;48.794;9.784;2023-03-01T10:03:17;15.33;;;9.90;;
6255;SDS011;3161;48.794;9.784;2023-03-01T10:08:40;16.20;;;10.83;;
6255;SDS011;3161;48.794;9.784;2023-03-01T10:11:19;16.80;;;10.93;;
6255;SDS011;3161;48.794;9.784;2023-03-01T10:13:50;20.83;;;10.77;;
6255;SDS011;3161;48.794;9.784;2023-03-01T10:16:52;15.43;;;11.27;;
6255;SDS011;3161;48.794;9.784;2023-03-01T10:19:48;17.20;;;9.77;;
6255;SDS011;3161;48.794;9.784;2023-03-01T10:22:13;15.07;;;10.47;;
6255;SDS011;3161;48.794;9.784;2023-03-01T10:24:44;18.43;;;10.53;;
6255;SDS011;3161;48.794;9.784;2023-03-01T10:29:48;13.00;;;10.13;;
6255;SDS011;3161;48.794;9.784;2023-03-01T10:32:17;18.23;;;10.73;;
6255;SDS011;3161;48.794;9.784;2023-03-01T10:34:47;17.13;;;10.10;;
6255;SDS011;3161;48.794;9.784;2023-03-01T10:37:19;17.07;;;10.70;;
6255;SDS011;3161;48.794;9.784;2023-03-01T10:40:11;12.37;;;9.87;;
6255;SDS011;3161;48.794;9.784;2023-03-01T10:43:20;14.87;;;10.60;;
6255;SDS011;3161;48.794;9.784;2023-03-01T10:50:46;15.30;;;10.80;;
6255;SDS011;3161;48.794;9.784;2023-03-01T10:56:12;14.93;;;10.80;;
6255;SDS011;3161;48.794;9.784;2023-03-01T10:58:23;14.97;;;9.83;;
6255;SDS011;3161;48.794;9.784;2023-03-01T11:03:23;15.47;;;10.00;;
6255;SDS011;3161;48.794;9.784;2023-03-01T11:08:50;15.93;;;10.53;;
6255;SDS011;3161;48.794;9.784;2023-03-01T11:11:23;18.27;;;10.73;;
6255;SDS011;3161;48.794;9.784;2023-03-01T11:13:56;16.30;;;10.83;;
6255;SDS011;3161;48.794;9.784;2023-03-01T11:16:38;14.03;;;10.83;;
6255;SDS011;3161;48.794;9.784;2023-03-01T11:21:41;16.83;;;11.37;;
6255;SDS011;3161;48.794;9.784;2023-03-01T11:24:13;18.13;;;11.03;;
6255;SDS011;3161;48.794;9.784;2023-03-01T11:26:44;14.93;;;10.03;;
6255;SDS011;3161;48.794;9.784;2023-03-01T11:29:18;15.63;;;10.80;;
6255;SDS011;3161;48.794;9.784;2023-03-01T11:31:46;15.70;;;10.60;;
6255;SDS011;3161;48.794;9.784;2023-03-01T11:34:17;16.97;;;10.33;;
6255;SDS011;3161;48.794;9.784;2023-03-01T11:36:52;16.10;;;10.60;;
6255;SDS011;3161;48.794;9.784;2023-03-01T11:39:27;15.53;;;10.90;;
6255;SDS011;3161;48.794;9.784;2023-03-01T11:42:04;17.40;;;11.47;;
6255;SDS011;3161;48.794;9.784;2023-03-01T11:44:34;15.43;;;11.90;;
6255;SDS011;3161;48.794;9.784;2023-03-01T11:52:59;18.17;;;11.03;;
6255;SDS011;3161;48.794;9.784;2023-03-01T11:58:23;13.13;;;10.17;;
6255;SDS011;3161;48.794;9.784;2023-03-01T12:09:44;13.23;;;9.83;;
6255;SDS011;3161;48.794;9.784;2023-03-01T12:17:52;14.90;;;10.58;;
6255;SDS011;3161;48.794;9.784;2023-03-01T12:20:21;15.03;;;10.10;;
6255;SDS011;3161;48.794;9.784;2023-03-01T12:26:10;15.50;;;9.27;;
6255;SDS011;3161;48.794;9.784;2023-03-01T12:34:16;14.77;;;9.93;;
6255;SDS011;3161;48.794;9.784;2023-03-01T12:50:47;13.90;;;10.03;;
6255;SDS011;3161;48.794;9.784;2023-03-01T12:53:21;13.13;;;9.73;;
6255;SDS011;3161;48.794;9.784;2023-03-01T12:55:48;12.23;;;9.47;;
6255;SDS011;3161;48.794;9.784;2023-03-01T12:58:24;14.43;;;10.27;;
6255;SDS011;3161;48.794;9.784;2023-03-01T13:03:42;11.50;;;9.33;;
6255;SDS011;3161;48.794;9.784;2023-03-01T13:06:32;12.60;;;9.33;;
6255;SDS011;3161;48.794;9.784;2023-03-01T13:11:34;17.57;;;10.93;;
6255;SDS011;3161;48.794;9.784;2023-03-01T13:16:54;14.63;;;11.33;;
6255;SDS011;3161;48.794;9.784;2023-03-01T13:19:22;14.07;;;11.10;;
6255;SDS011;3161;48.794;9.784;2023-03-01T13:21:52;21.73;;;11.43;;
6255;SDS011;3161;48.794;9.784;2023-03-01T13:24:24;15.30;;;11.43;;
6255;SDS011;3161;48.794;9.784;2023-03-01T13:29:49;13.27;;;10.70;;
6255;SDS011;3161;48.794;9.784;2023-03-01T13:32:20;16.50;;;10.83;;
6255;SDS011;3161;48.794;9.784;2023-03-01T13:34:58;16.37;;;11.00;;
6255;SDS011;3161;48.794;9.784;2023-03-01T13:37:42;16.82;;;10.90;;
6255;SDS011;3161;48.794;9.784;2023-03-01T13:42:48;16.20;;;11.50;;
6255;SDS011;3161;48.794;9.784;2023-03-01T13:45:21;12.43;;;10.00;;
6255;SDS011;3161;48.794;9.784;2023-03-01T13:48:09;12.28;;;10.30;;
6255;SDS011;3161;48.794;9.784;2023-03-01T13:50:50;14.70;;;11.28;;
6255;SDS011;3161;48.794;9.784;2023-03-01T13:53:17;23.98;;;10.88;;
6255;SDS011;3161;48.794;9.784;2023-03-01T13:55:50;12.28;;;10.28;;
6255;SDS011;3161;48.794;9.784;2023-03-01T13:58:24;12.10;;;10.33;;
6255;SDS011;3161;48.794;9.784;2023-03-01T14:01:01;12.00;;;10.10;;
6255;SDS011;3161;48.794;9.784;2023-03-01T14:03:39;14.07;;;10.43;;
6255;SDS011;3161;48.794;9.784;2023-03-01T14:06:08;16.57;;;11.43;;
6255;SDS011;3161;48.794;9.784;2023-03-01T14:08:41;14.00;;;11.27;;
6255;SDS011;3161;48.794;9.784;2023-03-01T14:16:49;19.27;;;10.60;;
6255;SDS011;3161;48.794;9.784;2023-03-01T14:19:29;18.60;;;10.13;;
6255;SDS011;3161;48.794;9.784;2023-03-01T14:24:52;17.77;;;11.17;;
6255;SDS011;3161;48.794;9.784;2023-03-01T14:27:21;17.50;;;10.80;;
6255;SDS011;3161;48.794;9.784;2023-03-01T14:30:02;19.47;;;11.20;;
6255;SDS011;3161;48.794;9.784;2023-03-01T14:32:31;15.73;;;10.07;;
6255;SDS011;3161;48.794;9.784;2023-03-01T14:34:59;17.53;;;11.00;;
6255;SDS011;3161;48.794;9.784;2023-03-01T14:37:28;18.67;;;11.47;;
6255;SDS011;3161;48.794;9.784;2023-03-01T14:39:58;17.77;;;9.90;;
6255;SDS011;3161;48.794;9.784;2023-03-01T14:42:36;16.65;;;11.35;;
6255;SDS011;3161;48.794;9.784;2023-03-01T14:45:04;13.93;;;10.00;;
6255;SDS011;3161;48.794;9.784;2023-03-01T14:47:34;12.57;;;9.50;;
6255;SDS011;3161;48.794;9.784;2023-03-01T14:50:15;14.57;;;10.00;;
6255;SDS011;3161;48.794;9.784;2023-03-01T14:52:41;12.97;;;9.43;;
6255;SDS011;3161;48.794;9.784;2023-03-01T14:55:07;13.30;;;9.83;;
6255;SDS011;3161;48.794;9.784;2023-03-01T14:57:48;18.90;;;11.40;;
6255;SDS011;3161;48.794;9.784;2023-03-01T15:00:29;16.90;;;10.60;;
6255;SDS011;3161;48.794;9.784;2023-03-01T15:02:54;11.73;;;9.33;;
6255;SDS011;3161;48.794;9.784;2023-03-01T15:05:32;14.70;;;9.30;;
6255;SDS011;3161;48.794;9.784;2023-03-01T15:07:53;15.57;;;9.97;;
6255;SDS011;3161;48.794;9.784;2023-03-01T15:10:22;15.83;;;10.63;;
6255;SDS011;3161;48.794;9.784;2023-03-01T15:12:52;11.77;;;9.87;;
6255;SDS011;3161;48.794;9.784;2023-03-01T15:15:30;15.07;;;10.57;;
6255;SDS011;3161;48.794;9.784;2023-03-01T15:17:56;14.03;;;9.70;;
6255;SDS011;3161;48.794;9.784;2023-03-01T15:20:26;13.23;;;10.13;;
6255;SDS011;3161;48.794;9.784;2023-03-01T15:22:56;13.27;;;10.37;;
6255;SDS011;3161;48.794;9.784;2023-03-01T15:25:25;12.07;;;9.37;;
6255;SDS011;3161;48.794;9.784;2023-03-01T15:27:55;14.70;;;9.10;;
6255;SDS011;3161;48.794;9.784;2023-03-01T15:30:32;13.47;;;9.60;;
6255;SDS011;3161;48.794;9.784;2023-03-01T15:33:18;11.67;;;9.33;;
6255;SDS011;3161;48.794;9.784;2023-03-01T15:35:48;19.23;;;9.53;;
6255;SDS011;3161;48.794;9.784;2023-03-01T15:38:26;12.67;;;9.03;;
6255;SDS011;3161;48.794;9.784;2023-03-01T15:41:02;11.60;;;9.40;;
6255;SDS011;3161;48.794;9.784;2023-03-01T15:43:44;11.90;;;9.33;;
6255;SDS011;3161;48.794;9.784;2023-03-01T15:46:22;11.67;;;9.10;;
6255;SDS011;3161;48.794;9.784;2023-03-01T15:48:58;20.17;;;9.60;;
6255;SDS011;3161;48.794;9.784;2023-03-01T15:51:29;12.20;;;9.47;;
6255;SDS011;3161;48.794;9.784;2023-03-01T15:54:07;15.03;;;8.77;;
6255;SDS011;3161;48.794;9.784;2023-03-01T15:56:32;14.00;;;9.63;;
6255;SDS011;3161;48.794;9.784;2023-03-01T15:59:01;13.43;;;9.10;;
6255;SDS011;3161;48.794;9.784;2023-03-01T16:01:30;14.70;;;8.87;;
6255;SDS011;3161;48.794;9.784;2023-03-01T16:03:59;18.17;;;8.87;;
6255;SDS011;3161;48.794;9.784;2023-03-01T16:06:27;12.37;;;9.30;;
6255;SDS011;3161;48.794;9.784;2023-03-01T16:08:55;12.57;;;8.67;;
6255;SDS011;3161;48.794;9.784;2023-03-01T16:11:22;14.33;;;9.47;;
6255;SDS011;3161;48.794;9.784;2023-03-01T16:13:50;15.73;;;9.03;;
6255;SDS011;3161;48.794;9.784;2023-03-01T16:16:17;15.53;;;8.90;;
6255;SDS011;3161;48.794;9.784;2023-03-01T16:18:45;14.97;;;9.37;;
6255;SDS011;3161;48.794;9.784;2023-03-01T16:21:14;15.07;;;9.60;;
6255;SDS011;3161;48.794;9.784;2023-03-01T16:23:47;18.37;;;10.30;;
6255;SDS011;3161;48.794;9.784;2023-03-01T16:26:14;15.83;;;10.10;;
6255;SDS011;3161;48.794;9.784;2023-03-01T16:28:42;15.67;;;9.67;;
6255;SDS011;3161;48.794;9.784;2023-03-01T16:31:10;17.00;;;10.33;;
6255;SDS011;3161;48.794;9.784;2023-03-01T16:33:39;16.03;;;10.07;;
6255;SDS011;3161;48.794;9.784;2023-03-01T16:36:08;17.50;;;11.00;;
6255;SDS011;3161;48.794;9.784;2023-03-01T16:38:37;17.10;;;10.13;;
6255;SDS011;3161;48.794;9.784;2023-03-01T16:41:05;16.73;;;10.43;;
6255;SDS011;3161;48.794;9.784;2023-03-01T16:43:34;15.30;;;11.03;;
6255;SDS011;3161;48.794;9.784;2023-03-01T16:46:01;17.50;;;9.83;;
6255;SDS011;3161;48.794;9.784;2023-03-01T16:48:38;16.57;;;10.60;;
6255;SDS011;3161;48.794;9.784;2023-03-01T16:51:05;17.07;;;10.37;;
6255;SDS011;3161;48.794;9.784;2023-03-01T16:53:34;23.10;;;11.20;;
6255;SDS011;3161;48.794;9.784;2023-03-01T16:56:04;16.77;;;10.60;;